Time;durP1;ratioP1;P1;durP2;ratioP2;P2;SDS_P1;SDS_P2;PMS_P1;PMS_P2;Temp;Humidity;BMP_temperature;BMP_pressure;BME280_temperature;BME280_humidity;BME280_pressure;Samples;Min_cycle;Max_cycle;Signal;HPM_P1;HPM_P2
2022/08/13 00:02:17;;;;;;;5.88;2.88;;;18.00;99.90;;;;;;5000427;28;20552;-63
2022/08/13 00:05:03;;;;;;;3.97;2.30;;;18.00;99.90;;;;;;5017846;28;20155;-63
2022/08/13 00:07:30;;;;;;;4.25;2.63;;;17.90;99.90;;;;;;5000218;28;20192;-64
2022/08/13 00:09:57;;;;;;;6.03;2.70;;;17.80;99.90;;;;;;5018660;28;20284;-63
2022/08/13 00:15:26;;;;;;;2.58;2.38;;;17.70;99.90;;;;;;5019187;28;20187;-63
2022/08/13 00:17:52;;;;;;;6.13;2.40;;;17.70;99.90;;;;;;5017241;28;20163;-63
2022/08/13 00:20:21;;;;;;;4.38;2.55;;;17.70;99.90;;;;;;5016386;28;20191;-63
2022/08/13 00:22:48;;;;;;;3.15;2.42;;;17.70;99.90;;;;;;5015470;28;20172;-63
2022/08/13 00:25:15;;;;;;;5.65;2.22;;;17.80;99.90;;;;;;5017330;28;20314;-63
2022/08/13 00:27:47;;;;;;;4.28;2.10;;;17.80;99.90;;;;;;5018328;28;20172;-63
2022/08/13 00:30:14;;;;;;;3.08;2.28;;;17.80;99.90;;;;;;5016818;28;20650;-63
2022/08/13 00:32:40;;;;;;;5.10;2.45;;;17.80;99.90;;;;;;4999574;28;20573;-63
2022/08/13 00:35:06;;;;;;;3.92;2.10;;;17.80;99.90;;;;;;5018040;28;20175;-63
2022/08/13 00:37:32;;;;;;;4.13;2.15;;;17.70;99.90;;;;;;5017279;28;20179;-63
2022/08/13 00:39:58;;;;;;;4.90;2.35;;;17.60;99.90;;;;;;5017799;28;20196;-63
2022/08/13 00:42:27;;;;;;;6.78;2.28;;;17.60;99.90;;;;;;5017366;28;20183;-63
2022/08/13 00:44:53;;;;;;;3.00;2.22;;;17.50;99.90;;;;;;5000321;28;20604;-63
2022/08/13 00:50:04;;;;;;;4.95;2.45;;;17.50;99.90;;;;;;5018233;28;20210;-63
2022/08/13 00:52:33;;;;;;;4.40;2.30;;;17.30;99.90;;;;;;5017371;28;20206;-63
2022/08/13 00:55:08;;;;;;;7.15;2.50;;;17.30;99.90;;;;;;5018338;28;20179;-63
2022/08/13 00:57:35;;;;;;;5.97;2.42;;;17.20;99.90;;;;;;5018071;28;20187;-63
2022/08/13 01:00:08;;;;;;;7.30;2.30;;;17.20;99.90;;;;;;5018101;28;20188;-63
2022/08/13 01:02:34;;;;;;;5.43;2.60;;;17.20;99.90;;;;;;5015394;28;20160;-64
2022/08/13 01:05:02;;;;;;;4.00;2.70;;;17.10;99.90;;;;;;5013984;28;20183;-63
2022/08/13 01:07:30;;;;;;;4.68;2.80;;;17.00;99.90;;;;;;5013876;28;20195;-65
2022/08/13 01:09:56;;;;;;;5.57;2.67;;;17.00;99.90;;;;;;4996105;28;20677;-63
2022/08/13 01:12:23;;;;;;;3.88;2.35;;;17.00;99.90;;;;;;5013884;28;20210;-63
2022/08/13 01:14:52;;;;;;;5.13;2.83;;;16.90;99.90;;;;;;5013938;28;20212;-63
2022/08/13 01:17:22;;;;;;;3.10;2.63;;;16.90;99.90;;;;;;5013877;28;20206;-64
2022/08/13 01:19:50;;;;;;;5.07;2.67;;;16.90;99.90;;;;;;5014358;28;20270;-64
2022/08/13 01:22:16;;;;;;;3.40;2.65;;;17.00;99.90;;;;;;5013886;28;20263;-63
2022/08/13 01:24:42;;;;;;;4.65;3.00;;;16.90;99.90;;;;;;5013972;28;20203;-63
2022/08/13 01:27:10;;;;;;;3.85;2.42;;;16.90;99.90;;;;;;5014307;28;20726;-64
2022/08/13 01:29:36;;;;;;;4.03;2.80;;;16.80;99.90;;;;;;5014615;28;20226;-62
2022/08/13 01:32:03;;;;;;;3.72;2.67;;;16.80;99.90;;;;;;5015415;28;20642;-62
2022/08/13 01:34:31;;;;;;;3.15;2.85;;;16.80;99.90;;;;;;5014711;28;20172;-61
2022/08/13 01:36:57;;;;;;;2.47;2.28;;;16.80;99.90;;;;;;5014283;28;20667;-61
2022/08/13 01:39:28;;;;;;;4.10;2.65;;;16.80;99.90;;;;;;5013401;28;20215;-61
2022/08/13 01:41:55;;;;;;;3.30;3.00;;;16.80;99.90;;;;;;5013711;28;20591;-61
2022/08/13 01:44:24;;;;;;;4.65;3.08;;;16.70;99.90;;;;;;5013915;28;20180;-62
2022/08/13 01:52:34;;;;;;;3.03;2.67;;;16.70;99.90;;;;;;5014078;28;20198;-61
2022/08/13 01:55:05;;;;;;;5.03;2.58;;;16.60;99.90;;;;;;5017666;28;20172;-61
2022/08/13 01:57:33;;;;;;;4.85;3.00;;;16.60;99.90;;;;;;5017351;28;20229;-61
2022/08/13 02:00:01;;;;;;;5.57;3.20;;;16.60;99.90;;;;;;5017565;28;20191;-62
2022/08/13 02:02:27;;;;;;;5.22;3.00;;;16.60;99.90;;;;;;4999860;28;20290;-61
2022/08/13 02:04:55;;;;;;;3.45;2.60;;;16.60;99.90;;;;;;5017668;28;20175;-62
2022/08/13 02:07:21;;;;;;;10.65;2.75;;;16.50;99.90;;;;;;5017806;28;20657;-61
2022/08/13 02:09:47;;;;;;;3.60;2.70;;;16.60;99.90;;;;;;5017570;28;20224;-62
2022/08/13 02:12:15;;;;;;;4.88;2.72;;;16.60;99.90;;;;;;5032491;28;20242;-61
2022/08/13 02:14:42;;;;;;;6.85;2.63;;;16.60;99.90;;;;;;5017298;28;20543;-61
2022/08/13 02:17:25;;;;;;;8.43;2.92;;;16.50;99.90;;;;;;5017179;28;20572;-61
2022/08/13 02:19:55;;;;;;;4.53;2.78;;;16.50;99.90;;;;;;5017035;28;20191;-61
2022/08/13 02:22:22;;;;;;;3.28;2.60;;;16.50;99.90;;;;;;5016913;28;20660;-61
2022/08/13 02:24:54;;;;;;;3.78;2.85;;;16.50;99.90;;;;;;5016934;28;20667;-61
2022/08/13 02:27:21;;;;;;;3.47;2.80;;;16.40;99.90;;;;;;5016998;28;20182;-61
2022/08/13 02:29:52;;;;;;;3.53;2.60;;;16.40;99.90;;;;;;5016781;28;20695;-61
2022/08/13 02:32:19;;;;;;;3.30;2.53;;;16.40;99.90;;;;;;5016941;28;20724;-61
2022/08/13 02:34:50;;;;;;;2.80;2.58;;;16.30;99.90;;;;;;5016863;28;20648;-62
2022/08/13 02:37:20;;;;;;;4.38;2.55;;;16.30;99.90;;;;;;5016879;28;20250;-61
2022/08/13 02:39:47;;;;;;;3.78;2.90;;;16.30;99.90;;;;;;4998731;28;20672;-61
2022/08/13 02:42:13;;;;;;;3.88;2.47;;;16.20;99.90;;;;;;5016691;28;20186;-62
2022/08/13 02:44:40;;;;;;;3.78;2.80;;;16.20;99.90;;;;;;5016924;28;20267;-61
2022/08/13 02:47:06;;;;;;;3.38;2.92;;;16.10;99.90;;;;;;5016881;28;20182;-62
2022/08/13 02:49:33;;;;;;;3.88;2.75;;;16.00;99.90;;;;;;5016380;28;20192;-62
2022/08/13 02:51:59;;;;;;;3.20;2.70;;;16.00;99.90;;;;;;5016744;28;20195;-62
2022/08/13 02:54:27;;;;;;;2.53;2.33;;;16.00;99.90;;;;;;5016293;28;20168;-63
2022/08/13 02:56:53;;;;;;;6.75;2.70;;;16.10;99.90;;;;;;5016354;28;20222;-61
2022/08/13 02:59:18;;;;;;;2.67;2.47;;;16.10;99.90;;;;;;5016474;28;20239;-62
2022/08/13 03:01:46;;;;;;;3.20;2.90;;;16.00;99.90;;;;;;5016203;28;20180;-62
2022/08/13 03:04:14;;;;;;;4.32;2.92;;;16.00;99.90;;;;;;5015750;28;20246;-62
2022/08/13 03:06:42;;;;;;;3.30;2.58;;;16.00;99.90;;;;;;5015983;28;20545;-62
2022/08/13 03:09:08;;;;;;;3.40;3.03;;;15.80;99.90;;;;;;5015768;28;20672;-61
2022/08/13 03:11:36;;;;;;;3.63;2.60;;;15.80;99.90;;;;;;5015864;28;20175;-62
2022/08/13 03:14:08;;;;;;;4.03;3.10;;;15.70;99.90;;;;;;5016031;28;20218;-62
2022/08/13 03:16:34;;;;;;;2.88;2.65;;;15.70;99.90;;;;;;5016019;28;20261;-62
2022/08/13 03:19:01;;;;;;;7.07;2.83;;;15.70;99.90;;;;;;5015804;28;20191;-61
2022/08/13 03:21:32;;;;;;;3.47;3.17;;;15.60;99.90;;;;;;4998111;28;20187;-61
2022/08/13 03:23:59;;;;;;;2.80;2.60;;;15.60;99.90;;;;;;5015556;28;20180;-61
2022/08/13 03:26:25;;;;;;;3.00;2.70;;;15.60;99.90;;;;;;5015655;28;20574;-62
2022/08/13 03:28:51;;;;;;;3.53;2.50;;;15.60;99.90;;;;;;5015941;28;20246;-61
2022/08/13 03:31:18;;;;;;;5.60;2.72;;;15.60;99.90;;;;;;5015917;28;20172;-61
2022/08/13 03:33:45;;;;;;;8.18;2.92;;;15.60;99.90;;;;;;5015510;28;20774;-61
2022/08/13 03:36:11;;;;;;;4.97;3.15;;;15.50;99.90;;;;;;4997723;28;20641;-62
2022/08/13 03:38:37;;;;;;;3.78;3.08;;;15.60;99.90;;;;;;5015286;28;20194;-61
2022/08/13 03:41:14;;;;;;;3.53;2.88;;;15.60;99.90;;;;;;5016164;28;20198;-61
2022/08/13 03:43:45;;;;;;;4.88;3.15;;;15.70;99.90;;;;;;5015409;28;20651;-61
2022/08/13 03:46:21;;;;;;;4.05;2.92;;;15.70;99.90;;;;;;5015255;28;20160;-61
2022/08/13 03:48:48;;;;;;;4.28;3.15;;;15.70;99.90;;;;;;5015368;28;20195;-62
2022/08/13 03:51:16;;;;;;;3.28;2.80;;;15.60;99.90;;;;;;5015353;28;20176;-62
2022/08/13 03:53:43;;;;;;;3.55;2.95;;;15.50;99.90;;;;;;5014687;28;20560;-61
2022/08/13 03:56:09;;;;;;;4.55;2.78;;;15.50;99.90;;;;;;5015164;28;20195;-61
2022/08/13 03:58:37;;;;;;;4.30;3.00;;;15.40;99.90;;;;;;5014966;28;20677;-61
2022/08/13 04:01:04;;;;;;;4.70;3.10;;;15.40;99.90;;;;;;4997389;28;20763;-61
2022/08/13 04:03:41;;;;;;;4.90;3.25;;;15.40;99.90;;;;;;5014940;28;20200;-61
2022/08/13 04:06:13;;;;;;;3.30;3.00;;;15.40;99.90;;;;;;5015600;28;20156;-62
2022/08/13 04:08:39;;;;;;;3.92;2.90;;;15.30;99.90;;;;;;5014609;28;20196;-62
2022/08/13 04:11:11;;;;;;;3.13;2.85;;;15.30;99.90;;;;;;5015119;28;20180;-61
2022/08/13 04:13:38;;;;;;;4.88;2.97;;;15.30;99.90;;;;;;5014776;28;20254;-61
2022/08/13 04:16:08;;;;;;;4.20;2.90;;;15.20;99.90;;;;;;5013968;28;20176;-62
2022/08/13 04:18:37;;;;;;;5.95;3.13;;;15.30;99.90;;;;;;5014740;28;20698;-61
2022/08/13 04:21:06;;;;;;;3.58;3.05;;;15.30;99.90;;;;;;5014680;28;20666;-61
2022/08/13 04:23:38;;;;;;;3.45;3.15;;;15.20;99.90;;;;;;5014503;28;20172;-61
2022/08/13 04:26:04;;;;;;;3.42;2.92;;;15.20;99.90;;;;;;5029763;28;20176;-62
2022/08/13 04:28:29;;;;;;;3.25;2.95;;;15.20;99.90;;;;;;5015016;28;20282;-61
2022/08/13 04:30:56;;;;;;;3.00;2.80;;;15.20;99.90;;;;;;5014532;28;20175;-61
2022/08/13 04:33:23;;;;;;;3.65;2.97;;;15.10;99.90;;;;;;5014335;28;20282;-62
2022/08/13 04:35:49;;;;;;;4.75;3.08;;;15.10;99.90;;;;;;5014532;28;20518;-61
2022/08/13 04:38:15;;;;;;;4.13;2.90;;;15.10;99.90;;;;;;5014107;28;20233;-62
2022/08/13 04:40:43;;;;;;;3.60;2.97;;;15.10;99.90;;;;;;5014432;28;20184;-61
2022/08/13 04:43:11;;;;;;;3.17;2.88;;;15.10;99.90;;;;;;5014824;28;20180;-61
2022/08/13 04:45:38;;;;;;;5.38;3.30;;;15.20;99.90;;;;;;5014217;28;20174;-61
2022/08/13 04:48:09;;;;;;;3.42;3.13;;;15.20;99.90;;;;;;5014172;28;20230;-62
2022/08/13 04:50:37;;;;;;;6.20;3.10;;;15.20;99.90;;;;;;5014477;28;20165;-62
2022/08/13 04:53:08;;;;;;;5.30;3.10;;;15.30;99.90;;;;;;5014102;28;20192;-62
2022/08/13 04:55:36;;;;;;;6.65;3.38;;;15.30;99.90;;;;;;5015576;28;20218;-63
2022/08/13 04:58:03;;;;;;;6.15;3.17;;;15.30;99.90;;;;;;5002206;28;20552;-63
2022/08/13 05:00:33;;;;;;;4.03;3.45;;;15.40;99.90;;;;;;5020284;28;20669;-63
2022/08/13 05:03:14;;;;;;;6.47;3.67;;;15.40;99.90;;;;;;5019955;28;20164;-63
2022/08/13 05:05:41;;;;;;;4.88;3.65;;;15.50;99.90;;;;;;5020118;28;20175;-63
2022/08/13 05:08:07;;;;;;;3.97;3.58;;;15.50;99.90;;;;;;5002034;28;20215;-63
2022/08/13 05:10:38;;;;;;;4.40;3.30;;;15.50;99.90;;;;;;5020094;28;20172;-63
2022/08/13 05:13:28;;;;;;;3.83;3.15;;;15.60;99.90;;;;;;5020628;28;20242;-63
2022/08/13 05:15:56;;;;;;;6.38;3.53;;;15.60;99.90;;;;;;5018684;28;20172;-63
2022/08/13 05:18:22;;;;;;;4.40;3.15;;;15.70;99.90;;;;;;5019496;28;20172;-63
2022/08/13 05:20:49;;;;;;;3.65;3.00;;;15.70;99.90;;;;;;5018718;28;20648;-63
2022/08/13 05:23:14;;;;;;;3.88;2.80;;;15.70;99.90;;;;;;5018410;28;20215;-63
2022/08/13 05:25:41;;;;;;;3.67;3.10;;;15.80;99.90;;;;;;5018062;28;20183;-63
2022/08/13 05:28:10;;;;;;;4.68;3.03;;;15.70;99.90;;;;;;5036530;28;20172;-63
2022/08/13 05:30:39;;;;;;;7.10;3.15;;;15.80;99.90;;;;;;5020333;28;20719;-63
2022/08/13 05:33:19;;;;;;;3.75;3.33;;;15.90;99.90;;;;;;5018943;28;20720;-63
2022/08/13 05:35:48;;;;;;;3.22;2.90;;;15.90;99.90;;;;;;5018888;28;20171;-63
2022/08/13 05:38:15;;;;;;;4.30;3.65;;;16.10;99.90;;;;;;5018094;28;20263;-63
2022/08/13 05:40:45;;;;;;;3.92;3.10;;;16.10;99.90;;;;;;5018346;28;20586;-63
2022/08/13 05:43:19;;;;;;;4.00;3.10;;;16.20;99.90;;;;;;5018708;28;20186;-63
2022/08/13 05:45:54;;;;;;;4.47;3.28;;;16.30;99.90;;;;;;4999737;28;20179;-63
2022/08/13 05:48:20;;;;;;;5.28;3.15;;;16.40;99.90;;;;;;5017783;28;20242;-63
2022/08/13 05:50:45;;;;;;;3.50;3.20;;;16.50;99.90;;;;;;5017530;28;20267;-63
2022/08/13 05:53:12;;;;;;;4.20;3.22;;;16.50;99.90;;;;;;5016981;28;20250;-63
2022/08/13 05:55:40;;;;;;;3.58;3.20;;;16.60;99.90;;;;;;5017359;28;20671;-63
2022/08/13 05:58:07;;;;;;;3.95;3.00;;;16.70;99.90;;;;;;5017477;28;20164;-63
2022/08/13 06:03:27;;;;;;;3.10;2.75;;;17.00;99.90;;;;;;5017406;28;20218;-63
2022/08/13 06:06:11;;;;;;;5.50;2.88;;;17.00;99.90;;;;;;4999473;28;20182;-63
2022/08/13 06:08:40;;;;;;;4.95;3.30;;;17.20;99.90;;;;;;5016918;28;20656;-63
2022/08/13 06:11:16;;;;;;;7.40;3.15;;;17.20;99.90;;;;;;5016874;28;20191;-63
2022/08/13 06:13:43;;;;;;;4.85;3.08;;;17.40;99.90;;;;;;5017304;28;20188;-63
2022/08/13 06:16:11;;;;;;;4.93;2.95;;;17.40;99.90;;;;;;5016755;28;20269;-63
2022/08/13 06:18:43;;;;;;;4.13;3.45;;;17.50;99.90;;;;;;5016747;28;20194;-68
2022/08/13 06:21:11;;;;;;;7.50;3.47;;;17.70;99.90;;;;;;5016732;28;20618;-68
2022/08/13 06:23:38;;;;;;;3.72;3.38;;;17.70;99.90;;;;;;4999115;28;20183;-68
2022/08/13 06:26:07;;;;;;;3.30;3.00;;;17.80;99.90;;;;;;5016631;28;20176;-68
2022/08/13 06:28:34;;;;;;;3.33;3.03;;;17.90;99.90;;;;;;5031996;28;20211;-68
2022/08/13 06:31:03;;;;;;;2.97;2.78;;;18.00;99.90;;;;;;5031758;28;20187;-68
2022/08/13 06:33:31;;;;;;;4.30;2.92;;;18.10;99.90;;;;;;5016766;28;20192;-68
2022/08/13 06:36:07;;;;;;;4.78;3.45;;;18.20;99.90;;;;;;5031932;28;20207;-68
2022/08/13 06:38:45;;;;;;;3.30;2.92;;;18.30;99.90;;;;;;5015484;28;20283;-68
2022/08/13 06:41:12;;;;;;;4.25;2.97;;;18.40;99.90;;;;;;5016650;28;20186;-68
2022/08/13 06:43:44;;;;;;;6.25;2.80;;;18.50;99.90;;;;;;5016487;28;20185;-68
2022/08/13 06:46:12;;;;;;;2.78;2.58;;;18.70;99.90;;;;;;5031903;28;20187;-68
2022/08/13 06:48:42;;;;;;;2.78;2.40;;;18.80;99.90;;;;;;5016949;28;20286;-69
2022/08/13 06:51:10;;;;;;;6.32;2.50;;;18.90;99.90;;;;;;5017013;28;20529;-68
2022/08/13 06:53:38;;;;;;;3.97;2.45;;;19.00;99.90;;;;;;4998744;28;20200;-68
2022/08/13 06:56:11;;;;;;;4.70;3.00;;;19.10;99.90;;;;;;5016107;28;20278;-68
2022/08/13 06:58:37;;;;;;;2.78;2.30;;;19.20;99.90;;;;;;5016239;28;20557;-68
2022/08/13 07:01:03;;;;;;;3.53;2.72;;;19.20;99.90;;;;;;5016139;28;20172;-68
2022/08/13 07:03:32;;;;;;;8.15;3.00;;;19.30;99.90;;;;;;4998851;28;20573;-68
2022/08/13 07:05:58;;;;;;;3.05;2.70;;;19.40;99.90;;;;;;4998606;28;20180;-68
2022/08/13 07:08:25;;;;;;;3.13;2.83;;;19.50;99.90;;;;;;4998126;28;20222;-68
2022/08/13 07:11:21;;;;;;;3.28;2.40;;;19.70;99.90;;;;;;4998402;28;20728;-68
2022/08/13 07:13:45;;;;;;;3.70;2.63;;;19.70;99.90;;;;;;5015680;28;20207;-68
2022/08/13 07:16:17;;;;;;;4.20;2.92;;;19.90;99.90;;;;;;5015866;28;20176;-68
2022/08/13 07:18:46;;;;;;;3.05;2.63;;;20.00;99.90;;;;;;4998547;28;20227;-68
2022/08/13 07:21:15;;;;;;;8.27;2.97;;;20.20;99.90;;;;;;5015863;28;20258;-68
2022/08/13 07:23:42;;;;;;;6.43;2.80;;;20.30;99.90;;;;;;5015677;28;20180;-68
2022/08/13 07:26:16;;;;;;;3.17;2.47;;;20.40;99.90;;;;;;5016910;28;20175;-68
2022/08/13 07:28:44;;;;;;;3.97;2.63;;;20.50;99.90;;;;;;5015871;28;20192;-68
2022/08/13 07:31:11;;;;;;;3.63;2.75;;;20.60;99.90;;;;;;5015773;28;20603;-68
2022/08/13 07:33:49;;;;;;;3.95;2.50;;;20.70;99.90;;;;;;5016138;28;20222;-68
2022/08/13 07:36:15;;;;;;;3.28;2.72;;;20.80;99.90;;;;;;5030370;28;20172;-68
2022/08/13 07:38:43;;;;;;;3.70;2.60;;;20.90;99.90;;;;;;5015393;28;20565;-64
2022/08/13 07:41:11;;;;;;;4.78;2.47;;;21.10;99.90;;;;;;5016143;28;20194;-67
2022/08/13 07:43:39;;;;;;;3.40;2.50;;;21.10;99.90;;;;;;5016016;28;20180;-67
2022/08/13 07:46:09;;;;;;;2.90;2.58;;;21.20;99.90;;;;;;4998852;28;20263;-68
2022/08/13 07:48:37;;;;;;;2.63;2.42;;;21.30;99.90;;;;;;5016270;28;20207;-67
2022/08/13 07:51:06;;;;;;;4.10;2.60;;;21.40;99.90;;;;;;5015563;28;20164;-67
2022/08/13 07:53:39;;;;;;;4.15;2.63;;;21.50;99.90;;;;;;4997745;28;20230;-67
2022/08/13 07:56:06;;;;;;;3.42;2.50;;;21.70;99.90;;;;;;5015745;28;20184;-68
2022/08/13 07:58:34;;;;;;;4.50;2.28;;;21.80;99.90;;;;;;5015055;28;20610;-68
2022/08/13 08:01:04;;;;;;;2.88;2.58;;;22.00;99.90;;;;;;5016332;28;20163;-68
2022/08/13 08:03:41;;;;;;;3.75;2.45;;;22.10;99.90;;;;;;5015186;28;20168;-68
2022/08/13 08:06:10;;;;;;;5.40;2.60;;;22.20;99.90;;;;;;5015542;28;20167;-67
2022/08/13 08:08:39;;;;;;;2.42;2.22;;;22.30;99.90;;;;;;4997819;28;20204;-68
2022/08/13 08:11:06;;;;;;;3.38;2.17;;;22.40;99.90;;;;;;5015707;28;20157;-68
2022/08/13 08:13:34;;;;;;;3.70;2.45;;;22.50;99.90;;;;;;5016300;28;20231;-68
2022/08/13 08:16:02;;;;;;;4.38;2.47;;;22.50;99.90;;;;;;5016031;28;20294;-68
2022/08/13 08:18:28;;;;;;;2.78;2.47;;;22.70;99.90;;;;;;5030861;28;20183;-68
2022/08/13 08:21:06;;;;;;;4.20;2.20;;;22.80;99.90;;;;;;5015292;28;20194;-68
2022/08/13 08:23:35;;;;;;;5.55;2.38;;;22.90;99.90;;;;;;5015314;28;20294;-67
2022/08/13 08:26:02;;;;;;;3.83;2.50;;;23.00;99.90;;;;;;5015322;28;20176;-68
2022/08/13 08:28:31;;;;;;;3.83;2.40;;;23.10;99.90;;;;;;5016417;28;20167;-68
2022/08/13 08:30:56;;;;;;;2.67;2.17;;;23.30;99.90;;;;;;5016530;28;20182;-68
2022/08/13 08:33:26;;;;;;;3.45;2.40;;;23.50;99.90;;;;;;5015739;28;20195;-68
2022/08/13 08:35:55;;;;;;;3.10;2.40;;;23.60;99.90;;;;;;4998355;28;20179;-67
2022/08/13 08:43:56;;;;;;;2.35;2.20;;;24.00;99.90;;;;;;5015172;28;20743;-67
2022/08/13 08:46:24;;;;;;;3.53;2.40;;;24.20;99.90;;;;;;5029838;28;20175;-71
2022/08/13 08:48:54;;;;;;;3.47;2.50;;;24.40;99.90;;;;;;5014967;28;20249;-72
2022/08/13 08:51:21;;;;;;;3.45;2.08;;;24.60;99.90;;;;;;5014459;28;20226;-76
2022/08/13 08:53:48;;;;;;;2.47;2.28;;;24.80;99.90;;;;;;5014504;28;20203;-76
2022/08/13 08:56:20;;;;;;;3.28;2.05;;;25.00;99.90;;;;;;4997033;28;20197;-67
2022/08/13 08:58:46;;;;;;;4.85;2.38;;;25.20;99.90;;;;;;4996336;28;20199;-68
2022/08/13 09:01:12;;;;;;;2.65;2.20;;;25.30;99.90;;;;;;5029271;28;20177;-65
2022/08/13 09:03:46;;;;;;;4.55;2.28;;;25.50;99.90;;;;;;5013654;28;20246;-65
2022/08/13 09:06:12;;;;;;;4.45;2.30;;;25.70;99.90;;;;;;5014155;28;20164;-65
2022/08/13 09:08:39;;;;;;;2.45;1.83;;;26.00;99.90;;;;;;5013656;28;20246;-65
2022/08/13 09:11:05;;;;;;;3.17;1.70;;;26.20;99.90;;;;;;4996019;28;20184;-65
2022/08/13 09:13:33;;;;;;;2.42;1.85;;;26.40;99.90;;;;;;5014028;28;20300;-65
2022/08/13 09:16:00;;;;;;;2.00;1.80;;;26.60;99.90;;;;;;5014748;28;20176;-65
2022/08/13 09:18:27;;;;;;;2.83;1.67;;;26.80;99.90;;;;;;4996446;28;20175;-65
2022/08/13 09:20:53;;;;;;;2.70;1.65;;;26.80;99.90;;;;;;5014265;28;20182;-65
2022/08/13 09:23:21;;;;;;;1.80;1.70;;;27.00;99.90;;;;;;4996298;28;20187;-66
2022/08/13 09:25:51;;;;;;;2.60;2.03;;;27.20;99.90;;;;;;5013601;28;20673;-65
2022/08/13 09:28:26;;;;;;;4.63;2.03;;;27.30;99.90;;;;;;4996214;28;20172;-66
2022/08/13 09:30:54;;;;;;;1.80;1.70;;;27.50;99.90;;;;;;5013934;28;20625;-65
2022/08/13 09:33:23;;;;;;;1.83;1.73;;;27.60;99.90;;;;;;5013537;28;20219;-65
2022/08/13 09:35:51;;;;;;;1.80;1.70;;;27.70;99.90;;;;;;5013709;28;20673;-65
2022/08/13 09:38:18;;;;;;;1.90;1.80;;;27.80;99.90;;;;;;5013659;28;20183;-65
2022/08/13 09:40:54;;;;;;;4.10;1.77;;;27.90;99.90;;;;;;5014347;28;20223;-69
2022/08/13 09:43:29;;;;;;;3.08;1.63;;;28.00;99.90;;;;;;5013969;28;20250;-65
2022/08/13 09:45:54;;;;;;;2.08;1.92;;;28.10;99.90;;;;;;5013913;28;20521;-66
2022/08/13 09:48:21;;;;;;;4.22;1.88;;;28.20;99.90;;;;;;5013734;28;20230;-66
2022/08/13 09:50:47;;;;;;;1.88;1.50;;;28.30;99.90;;;;;;5014047;28;20168;-65
2022/08/13 09:53:12;;;;;;;2.20;1.98;;;28.50;99.90;;;;;;5013330;28;20208;-65
2022/08/13 09:55:39;;;;;;;1.60;1.50;;;28.50;99.90;;;;;;5013222;28;20267;-65
2022/08/13 09:58:05;;;;;;;6.82;2.50;;;28.50;99.90;;;;;;4995853;28;20182;-65
2022/08/13 10:00:33;;;;;;;1.63;1.40;;;28.60;99.90;;;;;;5013543;28;20219;-65
2022/08/13 10:03:05;;;;;;;2.10;1.80;;;28.60;99.90;;;;;;5013329;28;20577;-66
2022/08/13 10:05:34;;;;;;;1.80;1.70;;;28.60;99.90;;;;;;5013515;28;20156;-65
2022/08/13 10:08:06;;;;;;;2.80;1.73;;;28.70;99.90;;;;;;5012955;28;20266;-65
2022/08/13 10:10:33;;;;;;;2.03;1.60;;;28.60;99.90;;;;;;4995332;28;20203;-65
2022/08/13 10:13:02;;;;;;;2.33;1.75;;;28.60;99.90;;;;;;5013348;28;20203;-65
2022/08/13 10:15:28;;;;;;;3.25;1.88;;;28.60;99.90;;;;;;5016715;28;20159;-65
2022/08/13 10:17:59;;;;;;;2.20;1.80;;;28.60;99.90;;;;;;5017205;28;20176;-65
2022/08/13 10:20:30;;;;;;;2.08;1.85;;;28.70;99.90;;;;;;5016951;28;20279;-65
2022/08/13 10:22:57;;;;;;;1.83;1.73;;;28.70;99.90;;;;;;5016949;28;20622;-65
2022/08/13 10:25:24;;;;;;;2.20;1.90;;;28.80;99.90;;;;;;5016879;28;20575;-65
2022/08/13 10:27:51;;;;;;;2.30;1.83;;;28.90;99.90;;;;;;5016977;28;20172;-65
2022/08/13 10:30:24;;;;;;;3.10;1.80;;;29.00;99.90;;;;;;5016515;28;20287;-65
2022/08/13 10:32:50;;;;;;;4.95;2.10;;;29.00;99.90;;;;;;5016572;28;20588;-65
2022/08/13 10:35:19;;;;;;;3.33;2.08;;;29.10;99.90;;;;;;5016499;28;20255;-65
2022/08/13 10:37:47;;;;;;;1.95;1.83;;;29.30;99.90;;;;;;5016428;28;20234;-65
2022/08/13 10:40:15;;;;;;;3.38;1.75;;;29.40;99.90;;;;;;5016242;28;20191;-65
2022/08/13 10:42:44;;;;;;;2.10;1.90;;;29.50;99.90;;;;;;5016370;28;20507;-65
2022/08/13 10:45:12;;;;;;;2.03;1.90;;;29.30;99.90;;;;;;5016273;28;20263;-65
2022/08/13 10:47:47;;;;;;;2.20;2.00;;;29.10;99.90;;;;;;5016565;28;20259;-65
2022/08/13 10:50:18;;;;;;;3.45;2.25;;;28.90;99.90;;;;;;5016452;28;20191;-65
2022/08/13 10:52:44;;;;;;;3.50;2.10;;;28.90;99.90;;;;;;5016028;28;20204;-65
2022/08/13 10:55:12;;;;;;;3.00;2.40;;;28.90;99.90;;;;;;5016059;28;20255;-65
2022/08/13 10:57:45;;;;;;;4.20;2.42;;;29.10;99.90;;;;;;5015920;28;20238;-65
2022/08/13 11:00:14;;;;;;;2.17;2.08;;;29.30;99.90;;;;;;4999042;28;20200;-65
2022/08/13 11:02:40;;;;;;;4.43;2.08;;;29.30;99.90;;;;;;5015923;28;20615;-65
2022/08/13 11:05:08;;;;;;;2.60;2.33;;;29.50;99.90;;;;;;5016689;28;20527;-65
2022/08/13 11:07:38;;;;;;;3.60;2.00;;;29.60;99.90;;;;;;5015805;28;20176;-65
2022/08/13 11:10:09;;;;;;;2.72;2.00;;;29.70;99.90;;;;;;5015702;28;20553;-65
2022/08/13 11:12:36;;;;;;;2.10;2.00;;;29.90;99.90;;;;;;5016220;28;20544;-65
2022/08/13 11:15:07;;;;;;;3.03;2.05;;;30.00;99.90;;;;;;5015672;28;20227;-65
2022/08/13 11:17:34;;;;;;;1.88;1.77;;;30.10;99.90;;;;;;4998037;28;20190;-65
2022/08/13 11:20:06;;;;;;;2.20;2.00;;;30.10;99.90;;;;;;5015611;28;20207;-65
2022/08/13 11:22:34;;;;;;;3.63;1.98;;;30.30;99.90;;;;;;5015534;28;20183;-65
2022/08/13 11:25:01;;;;;;;3.17;2.05;;;30.50;99.90;;;;;;5015101;28;20575;-63
2022/08/13 11:27:27;;;;;;;5.25;2.40;;;30.60;99.90;;;;;;5015970;28;20218;-63
2022/08/13 11:29:53;;;;;;;3.17;2.30;;;30.80;99.90;;;;;;5016594;28;20199;-75
2022/08/13 11:32:22;;;;;;;3.22;1.80;;;30.90;99.90;;;;;;5016488;28;20191;-75
2022/08/13 11:34:47;;;;;;;2.85;2.03;;;31.00;99.90;;;;;;5017267;28;20180;-66
2022/08/13 11:37:13;;;;;;;1.98;1.73;;;31.00;99.90;;;;;;5015301;28;20230;-66
2022/08/13 11:39:39;;;;;;;2.50;2.30;;;31.10;99.90;;;;;;5015559;28;20638;-66
2022/08/13 11:42:05;;;;;;;2.80;2.20;;;31.10;99.90;;;;;;4997749;28;20267;-66
2022/08/13 11:44:31;;;;;;;3.28;2.22;;;31.20;99.90;;;;;;5015469;28;20160;-66
2022/08/13 11:46:57;;;;;;;3.97;2.10;;;31.30;99.90;;;;;;5015081;28;20640;-66
2022/08/13 11:49:22;;;;;;;3.25;2.05;;;31.50;99.90;;;;;;5015081;28;20188;-66
2022/08/13 11:51:48;;;;;;;3.72;2.20;;;31.70;99.90;;;;;;5015087;28;20176;-66
2022/08/13 11:54:15;;;;;;;3.15;1.92;;;31.80;99.90;;;;;;5014719;28;20573;-71
2022/08/13 11:56:40;;;;;;;2.78;2.00;;;32.00;99.90;;;;;;5015140;28;20302;-66
2022/08/13 11:59:06;;;;;;;2.72;2.10;;;32.00;99.90;;;;;;5014869;28;20719;-67
2022/08/13 12:01:32;;;;;;;2.60;2.20;;;32.10;99.90;;;;;;5015484;28;20157;-66
2022/08/13 12:03:58;;;;;;;2.22;2.13;;;32.20;99.90;;;;;;4997464;28;20179;-67
2022/08/13 12:06:24;;;;;;;2.92;2.17;;;32.30;99.90;;;;;;5014761;28;20632;-67
2022/08/13 12:08:50;;;;;;;3.42;2.00;;;32.40;99.90;;;;;;5014959;28;20200;-66
2022/08/13 12:11:16;;;;;;;4.00;2.10;;;32.30;99.90;;;;;;5014582;28;20201;-66
2022/08/13 12:13:42;;;;;;;2.90;2.15;;;32.30;99.90;;;;;;5015080;28;20559;-66
2022/08/13 12:16:08;;;;;;;2.45;2.10;;;32.30;99.90;;;;;;5014725;28;20226;-66
2022/08/13 12:18:34;;;;;;;2.50;2.10;;;32.50;99.90;;;;;;5014766;28;20195;-66
2022/08/13 12:21:00;;;;;;;2.80;2.35;;;32.60;99.90;;;;;;5015206;28;20170;-66
2022/08/13 12:23:25;;;;;;;3.03;2.20;;;32.70;99.90;;;;;;5014746;28;20541;-66
2022/08/13 12:25:51;;;;;;;3.10;2.10;;;32.70;99.90;;;;;;5014313;28;20179;-66
2022/08/13 12:28:26;;;;;;;2.80;1.90;;;32.80;99.90;;;;;;5014690;28;20518;-66
2022/08/13 12:30:55;;;;;;;2.33;2.00;;;32.90;99.90;;;;;;4996775;28;20194;-66
2022/08/13 12:33:21;;;;;;;4.60;2.00;;;33.00;99.90;;;;;;5014834;28;20257;-66
2022/08/13 12:35:47;;;;;;;2.33;2.13;;;32.90;99.90;;;;;;5014307;28;20251;-66
2022/08/13 12:38:15;;;;;;;3.15;2.05;;;33.00;99.90;;;;;;4995863;28;20621;-66
2022/08/13 12:40:42;;;;;;;3.33;2.05;;;33.30;99.90;;;;;;5013869;28;20179;-66
2022/08/13 12:43:08;;;;;;;3.95;2.15;;;33.50;99.90;;;;;;5014293;28;20191;-66
2022/08/13 12:45:35;;;;;;;2.97;2.17;;;33.50;99.90;;;;;;5014779;28;20172;-66
2022/08/13 12:48:03;;;;;;;1.90;1.75;;;33.70;99.60;;;;;;5014301;28;20160;-66
2022/08/13 12:50:29;;;;;;;2.45;2.25;;;33.70;99.90;;;;;;5014079;28;20258;-66
2022/08/13 12:52:55;;;;;;;2.10;1.90;;;33.70;99.90;;;;;;5014104;28;20204;-66
2022/08/13 12:55:21;;;;;;;6.97;2.00;;;34.00;99.90;;;;;;5013828;28;20176;-66
2022/08/13 12:57:46;;;;;;;2.42;2.10;;;34.20;99.90;;;;;;5014005;28;20168;-64
2022/08/13 13:00:12;;;;;;;4.47;1.90;;;34.40;99.90;;;;;;4996183;28;20208;-65
2022/08/13 13:02:39;;;;;;;7.20;2.50;;;34.40;99.90;;;;;;5014506;28;20178;-65
2022/08/13 13:05:07;;;;;;;2.65;1.92;;;34.40;99.60;;;;;;5014204;28;20207;-65
2022/08/13 13:07:33;;;;;;;2.50;2.05;;;34.60;99.90;;;;;;5013613;28;20270;-65
2022/08/13 13:10:00;;;;;;;2.45;2.20;;;34.80;99.90;;;;;;5013023;28;20287;-65
2022/08/13 13:12:26;;;;;;;2.70;2.38;;;34.80;98.60;;;;;;5011936;28;20199;-65
2022/08/13 13:14:52;;;;;;;2.83;2.00;;;35.00;99.40;;;;;;5013311;28;20186;-66